PWSweather.com
Personal Weather Stations
Station Observations
BALTRELAY
Relay, Baltimore, MD 21227

RelayBaltimore, MD 21227

Lat: 39.24588, Lon: -76.719772

Elevation: 221

Station Type: Davis Vantage Pro2 (6153)

http://www.relayweather.com

Latest ConditionsUpdated 4:50:01 PM GMT Thursday, Feb 11, 2016
Currently Today's Max Today's Min Today's Average
Temperature 24.1°F-4.4°C 27.9°F-2.3°C 19.1°F-7.2°C 22.7°F-5.2°C
Dew Point 6.3°F-14.3°C 15.1°F-9.4°C 4.9°F-15.1°C 9.9°F-12.3°C
Winds 6.9 mph W11.1 kmh W 18.4 mph W29.6 kmh W - 8.2 mph 13.2 kmh
Wind Gusts 15.0 mph24.1 kmh 25.3 mph40.7 kmh - -
Humidity 46% 66% 44% 58%
Pressure 30.07 in1018.3 mb 30.08 in1018.6 mb 29.82 in1009.8 mb -
Hour Temp Dew Point Humidity Winds Wind Gusts Pressure Precip Precip Rate Daily Precip Total
04:50 PM 24.1°F-4.4°C 6.3°F-14.3°C 46% 6.9 mph W11.1 kmh W 15.0 mph24.1 kmh 30.07 in1018.3 mb - 0.00 in0.0 mm 0.00 in0.0 mm
04:45 PM 23.9°F-4.5°C 6.1°F-14.4°C 46% 8.1 mph W13.0 kmh W 12.7 mph20.4 kmh 30.07 in1018.3 mb - 0.00 in0.0 mm 0.00 in0.0 mm
04:40 PM 23.6°F-4.7°C 4.9°F-15.1°C 44% 11.5 mph WNW18.5 kmh WNW 19.6 mph31.5 kmh 30.08 in1018.6 mb - 0.00 in0.0 mm 0.00 in0.0 mm
04:30 PM 24.4°F-4.2°C 6.1°F-14.4°C 45% 13.8 mph W22.2 kmh W 19.6 mph31.5 kmh 30.08 in1018.6 mb - 0.00 in0.0 mm 0.00 in0.0 mm
04:20 PM 25.3°F-3.7°C 7.4°F-13.7°C 46% 9.2 mph WSW14.8 kmh WSW 16.1 mph25.9 kmh 30.07 in1018.3 mb - 0.00 in0.0 mm 0.00 in0.0 mm
04:15 PM 25.1°F-3.8°C 6.7°F-14.1°C 45% 18.4 mph W29.6 kmh W 21.9 mph35.2 kmh 30.07 in1018.3 mb - 0.00 in0.0 mm 0.00 in0.0 mm
04:10 PM 24.7°F-4.1°C 7.3°F-13.7°C 47% 4.6 mph W7.4 kmh W 4.6 mph7.4 kmh 30.07 in1018.3 mb - 0.00 in0.0 mm 0.00 in0.0 mm
04:00 PM 23.7°F-4.6°C 7.3°F-13.7°C 49% 8.1 mph WNW13.0 kmh WNW 11.5 mph18.5 kmh 30.07 in1018.3 mb - 0.00 in0.0 mm 0.00 in0.0 mm
03:50 PM 23.3°F-4.8°C 5.6°F-14.7°C 46% 12.7 mph W20.4 kmh W 25.3 mph40.7 kmh 30.08 in1018.6 mb - 0.00 in0.0 mm 0.00 in0.0 mm
03:45 PM 23.5°F-4.7°C 6.7°F-14.1°C 48% 11.5 mph NW18.5 kmh NW 18.4 mph29.6 kmh 30.07 in1018.3 mb - 0.00 in0.0 mm 0.00 in0.0 mm
03:40 PM 23.6°F-4.7°C 6.8°F-14.0°C 48% 10.4 mph WNW16.7 kmh WNW 18.4 mph29.6 kmh 30.07 in1018.3 mb - 0.00 in0.0 mm 0.00 in0.0 mm
03:30 PM 23.9°F-4.5°C 7.5°F-13.6°C 49% 8.1 mph W13.0 kmh W 8.1 mph13.0 kmh 30.07 in1018.3 mb - 0.00 in0.0 mm 0.00 in0.0 mm
03:20 PM 23.3°F-4.8°C 7.0°F-13.9°C 49% 16.1 mph WSW25.9 kmh WSW 20.7 mph33.3 kmh 30.08 in1018.6 mb - 0.00 in0.0 mm 0.00 in0.0 mm
03:15 PM 23.1°F-4.9°C 7.2°F-13.8°C 50% 12.7 mph WNW20.4 kmh WNW 19.6 mph31.5 kmh 30.07 in1018.3 mb - 0.00 in0.0 mm 0.00 in0.0 mm
03:10 PM 22.6°F-5.2°C 6.7°F-14.1°C 50% 8.1 mph WNW13.0 kmh WNW 8.1 mph13.0 kmh 30.08 in1018.6 mb - 0.00 in0.0 mm 0.00 in0.0 mm
03:00 PM 23.0°F-5.0°C 7.1°F-13.8°C 50% 13.8 mph W22.2 kmh W 23.0 mph37.0 kmh 30.07 in1018.3 mb - 0.00 in0.0 mm 0.00 in0.0 mm
02:50 PM 22.4°F-5.3°C 6.1°F-14.4°C 49% 12.7 mph WNW20.4 kmh WNW 15.0 mph24.1 kmh 30.07 in1018.3 mb - 0.00 in0.0 mm 0.00 in0.0 mm
02:45 PM 22.8°F-5.1°C 6.4°F-14.2°C 49% 13.8 mph W22.2 kmh W 16.1 mph25.9 kmh 30.07 in1018.3 mb - 0.00 in0.0 mm 0.00 in0.0 mm
02:40 PM 23.0°F-5.0°C 7.1°F-13.8°C 50% 13.8 mph W22.2 kmh W 21.9 mph35.2 kmh 30.07 in1018.3 mb - 0.00 in0.0 mm 0.00 in0.0 mm
02:30 PM 22.6°F-5.2°C 6.7°F-14.1°C 50% 12.7 mph WSW20.4 kmh WSW 18.4 mph29.6 kmh 30.07 in1018.3 mb - 0.00 in0.0 mm 0.00 in0.0 mm
02:20 PM 23.0°F-5.0°C 7.5°F-13.6°C 51% 10.4 mph WNW16.7 kmh WNW 18.4 mph29.6 kmh 30.06 in1017.9 mb - 0.00 in0.0 mm 0.00 in0.0 mm
02:15 PM 22.9°F-5.1°C 7.4°F-13.7°C 51% 8.1 mph W13.0 kmh W 11.5 mph18.5 kmh 30.06 in1017.9 mb - 0.00 in0.0 mm 0.00 in0.0 mm
02:10 PM 22.5°F-5.3°C 7.5°F-13.6°C 52% 3.5 mph W5.6 kmh W 8.1 mph13.0 kmh 30.06 in1017.9 mb - 0.00 in0.0 mm 0.00 in0.0 mm
02:00 PM 22.3°F-5.4°C 7.7°F-13.5°C 53% 9.2 mph WNW14.8 kmh WNW 12.7 mph20.4 kmh 30.06 in1017.9 mb - 0.00 in0.0 mm 0.00 in0.0 mm
01:50 PM 22.7°F-5.2°C 8.1°F-13.3°C 53% 4.6 mph W7.4 kmh W 12.7 mph20.4 kmh 30.05 in1017.6 mb - 0.00 in0.0 mm 0.00 in0.0 mm
01:45 PM 22.2°F-5.4°C 7.6°F-13.6°C 53% 5.8 mph W9.3 kmh W 9.2 mph14.8 kmh 30.05 in1017.6 mb - 0.00 in0.0 mm 0.00 in0.0 mm
01:40 PM 22.0°F-5.6°C 7.9°F-13.4°C 54% 8.1 mph SW13.0 kmh SW 11.5 mph18.5 kmh 30.04 in1017.3 mb - 0.00 in0.0 mm 0.00 in0.0 mm
01:30 PM 21.7°F-5.7°C 7.6°F-13.6°C 54% 6.9 mph NNW11.1 kmh NNW 12.7 mph20.4 kmh 30.04 in1017.3 mb - 0.00 in0.0 mm 0.00 in0.0 mm
01:20 PM 21.1°F-6.1°C 7.1°F-13.8°C 54% 5.8 mph W9.3 kmh W 11.5 mph18.5 kmh 30.04 in1017.3 mb - 0.00 in0.0 mm 0.00 in0.0 mm
01:15 PM 21.2°F-6.0°C 7.5°F-13.6°C 55% 5.8 mph W9.3 kmh W 9.2 mph14.8 kmh 30.03 in1016.9 mb - 0.00 in0.0 mm 0.00 in0.0 mm
01:10 PM 20.9°F-6.2°C 7.6°F-13.6°C 56% 5.8 mph W9.3 kmh W 11.5 mph18.5 kmh 30.03 in1016.9 mb - 0.00 in0.0 mm 0.00 in0.0 mm
01:00 PM 20.0°F-6.7°C 7.6°F-13.6°C 58% 4.6 mph SW7.4 kmh SW 6.9 mph11.1 kmh 30.02 in1016.6 mb - 0.00 in0.0 mm 0.00 in0.0 mm
12:50 PM 19.6°F-6.9°C 6.8°F-14.0°C 57% 5.8 mph WSW9.3 kmh WSW 9.2 mph14.8 kmh 30.02 in1016.6 mb - 0.00 in0.0 mm 0.00 in0.0 mm
12:45 PM 19.9°F-6.7°C 7.1°F-13.8°C 57% 6.9 mph NW11.1 kmh NW 12.7 mph20.4 kmh 30.02 in1016.6 mb - 0.00 in0.0 mm 0.00 in0.0 mm
12:40 PM 19.9°F-6.7°C 7.1°F-13.8°C 57% 8.1 mph WSW13.0 kmh WSW 11.5 mph18.5 kmh 30.02 in1016.6 mb - 0.00 in0.0 mm 0.00 in0.0 mm
12:30 PM 19.6°F-6.9°C 7.2°F-13.8°C 58% 4.6 mph WSW7.4 kmh WSW 5.8 mph9.3 kmh 30.01 in1016.3 mb - 0.00 in0.0 mm 0.00 in0.0 mm
12:20 PM 19.3°F-7.1°C 6.9°F-13.9°C 58% 2.3 mph SSW3.7 kmh SSW 4.6 mph7.4 kmh 30.01 in1016.3 mb - 0.00 in0.0 mm 0.00 in0.0 mm
12:15 PM 19.3°F-7.1°C 8.7°F-12.9°C 63% 2.3 mph WNW3.7 kmh WNW 5.8 mph9.3 kmh 30.01 in1016.3 mb - 0.00 in0.0 mm 0.00 in0.0 mm
12:10 PM 19.2°F-7.1°C 6.8°F-14.0°C 58% 3.5 mph SW5.6 kmh SW 6.9 mph11.1 kmh 30.01 in1016.3 mb - 0.00 in0.0 mm 0.00 in0.0 mm
12:00 PM 19.2°F-7.1°C 6.9°F-13.9°C 58% 3.5 mph WSW5.6 kmh WSW 5.8 mph9.3 kmh 30.00 in1015.9 mb - 0.00 in0.0 mm 0.00 in0.0 mm
11:50 AM 19.2°F-7.1°C 6.9°F-13.9°C 58% 5.8 mph WSW9.3 kmh WSW 4.6 mph7.4 kmh 30.00 in1015.9 mb - 0.00 in0.0 mm 0.00 in0.0 mm
11:45 AM 19.1°F-7.2°C 7.1°F-13.8°C 59% 8.1 mph W13.0 kmh W 10.4 mph16.7 kmh 30.00 in1015.9 mb - 0.00 in0.0 mm 0.00 in0.0 mm
11:40 AM 19.2°F-7.1°C 6.8°F-14.0°C 58% 3.5 mph NW5.6 kmh NW 3.5 mph5.6 kmh 29.99 in1015.6 mb - 0.00 in0.0 mm 0.00 in0.0 mm
11:30 AM 19.3°F-7.1°C 7.3°F-13.7°C 59% 4.6 mph W7.4 kmh W 9.2 mph14.8 kmh 29.99 in1015.6 mb - 0.00 in0.0 mm 0.00 in0.0 mm
11:20 AM 19.4°F-7.0°C 7.7°F-13.5°C 60% 1.2 mph SW1.9 kmh SW 4.6 mph7.4 kmh 29.98 in1015.2 mb - 0.00 in0.0 mm 0.00 in0.0 mm
11:15 AM 19.4°F-7.0°C 8.5°F-13.1°C 62% 1.2 mph W1.9 kmh W 2.3 mph3.7 kmh 29.98 in1015.2 mb - 0.00 in0.0 mm 0.00 in0.0 mm
11:10 AM 19.4°F-7.0°C 7.4°F-13.7°C 59% 3.5 mph W5.6 kmh W 4.6 mph7.4 kmh 29.98 in1015.2 mb - 0.00 in0.0 mm 0.00 in0.0 mm
11:00 AM 19.5°F-6.9°C 7.5°F-13.6°C 59% 3.5 mph WSW5.6 kmh WSW 4.6 mph7.4 kmh 29.98 in1015.2 mb - 0.00 in0.0 mm 0.00 in0.0 mm
10:50 AM 19.6°F-6.9°C 7.2°F-13.8°C 58% 4.6 mph WNW7.4 kmh WNW 8.1 mph13.0 kmh 29.97 in1014.9 mb - 0.00 in0.0 mm 0.00 in0.0 mm
10:45 AM 19.7°F-6.8°C 7.3°F-13.7°C 58% 3.5 mph W5.6 kmh W 9.2 mph14.8 kmh 29.97 in1014.9 mb - 0.00 in0.0 mm 0.00 in0.0 mm
10:40 AM 19.8°F-6.8°C 7.4°F-13.7°C 58% 5.8 mph W9.3 kmh W 8.1 mph13.0 kmh 29.97 in1014.9 mb - 0.00 in0.0 mm 0.00 in0.0 mm
10:30 AM 19.9°F-6.7°C 7.1°F-13.8°C 57% 3.5 mph W5.6 kmh W 8.1 mph13.0 kmh 29.96 in1014.6 mb - 0.00 in0.0 mm 0.00 in0.0 mm
10:20 AM 20.1°F-6.6°C 7.3°F-13.7°C 57% 4.6 mph WSW7.4 kmh WSW 11.5 mph18.5 kmh 29.96 in1014.6 mb - 0.00 in0.0 mm 0.00 in0.0 mm
10:15 AM 20.2°F-6.6°C 7.0°F-13.9°C 56% 9.2 mph W14.8 kmh W 12.7 mph20.4 kmh 29.96 in1014.6 mb - 0.00 in0.0 mm 0.00 in0.0 mm
10:10 AM 20.2°F-6.6°C 7.0°F-13.9°C 56% 8.1 mph NW13.0 kmh NW 9.2 mph14.8 kmh 29.95 in1014.2 mb - 0.00 in0.0 mm 0.00 in0.0 mm
10:00 AM 20.4°F-6.4°C 7.5°F-13.6°C 57% 10.4 mph W16.7 kmh W 19.6 mph31.5 kmh 29.95 in1014.2 mb - 0.00 in0.0 mm 0.00 in0.0 mm
09:50 AM 20.5°F-6.4°C 7.6°F-13.6°C 57% 5.8 mph WNW9.3 kmh WNW 10.4 mph16.7 kmh 29.94 in1013.9 mb - 0.00 in0.0 mm 0.00 in0.0 mm
09:45 AM 20.5°F-6.4°C 8.0°F-13.3°C 58% 8.1 mph WSW13.0 kmh WSW 8.1 mph13.0 kmh 29.95 in1014.2 mb - 0.00 in0.0 mm 0.00 in0.0 mm
09:40 AM 20.5°F-6.4°C 8.1°F-13.3°C 58% 12.7 mph WNW20.4 kmh WNW 23.0 mph37.0 kmh 29.94 in1013.9 mb - 0.00 in0.0 mm 0.00 in0.0 mm
09:30 AM 20.7°F-6.3°C 8.2°F-13.2°C 58% 6.9 mph W11.1 kmh W 9.2 mph14.8 kmh 29.93 in1013.5 mb - 0.00 in0.0 mm 0.00 in0.0 mm
09:20 AM 20.9°F-6.2°C 8.4°F-13.1°C 58% 6.9 mph W11.1 kmh W 8.1 mph13.0 kmh 29.93 in1013.5 mb - 0.00 in0.0 mm 0.00 in0.0 mm
09:15 AM 21.0°F-6.1°C 8.5°F-13.1°C 58% 10.4 mph WNW16.7 kmh WNW 11.5 mph18.5 kmh 29.93 in1013.5 mb - 0.00 in0.0 mm 0.00 in0.0 mm
09:10 AM 21.0°F-6.1°C 8.5°F-13.1°C 58% 11.5 mph NW18.5 kmh NW 21.9 mph35.2 kmh 29.93 in1013.5 mb - 0.00 in0.0 mm 0.00 in0.0 mm
09:00 AM 21.0°F-6.1°C 8.9°F-12.8°C 59% 8.1 mph W13.0 kmh W 12.7 mph20.4 kmh 29.92 in1013.2 mb - 0.00 in0.0 mm 0.00 in0.0 mm
08:50 AM 21.0°F-6.1°C 8.9°F-12.8°C 59% 4.6 mph WSW7.4 kmh WSW 8.1 mph13.0 kmh 29.93 in1013.5 mb - 0.00 in0.0 mm 0.00 in0.0 mm
08:45 AM 21.0°F-6.1°C 8.9°F-12.8°C 59% 5.8 mph NW9.3 kmh NW 9.2 mph14.8 kmh 29.93 in1013.5 mb - 0.00 in0.0 mm 0.00 in0.0 mm
08:40 AM 21.1°F-6.1°C 9.0°F-12.8°C 59% 4.6 mph W7.4 kmh W 5.8 mph9.3 kmh 29.93 in1013.5 mb - 0.00 in0.0 mm 0.00 in0.0 mm
08:30 AM 21.2°F-6.0°C 9.4°F-12.6°C 60% 4.6 mph W7.4 kmh W 10.4 mph16.7 kmh 29.93 in1013.5 mb - 0.00 in0.0 mm 0.00 in0.0 mm
08:20 AM 21.2°F-6.0°C 9.4°F-12.6°C 60% 5.8 mph W9.3 kmh W 8.1 mph13.0 kmh 29.92 in1013.2 mb - 0.00 in0.0 mm 0.00 in0.0 mm
08:15 AM 21.2°F-6.0°C 9.1°F-12.7°C 59% 5.8 mph W9.3 kmh W 8.1 mph13.0 kmh 29.92 in1013.2 mb - 0.00 in0.0 mm 0.00 in0.0 mm
08:10 AM 21.4°F-5.9°C 8.9°F-12.8°C 58% 2.3 mph W3.7 kmh W 4.6 mph7.4 kmh 29.92 in1013.2 mb - 0.00 in0.0 mm 0.00 in0.0 mm
08:00 AM 21.6°F-5.8°C 9.1°F-12.7°C 58% 11.5 mph WNW18.5 kmh WNW 11.5 mph18.5 kmh 29.92 in1013.2 mb - 0.00 in0.0 mm 0.00 in0.0 mm
07:50 AM 21.8°F-5.7°C 9.3°F-12.6°C 58% 11.5 mph W18.5 kmh W 19.6 mph31.5 kmh 29.92 in1013.2 mb - 0.00 in0.0 mm 0.00 in0.0 mm
07:45 AM 21.7°F-5.7°C 9.2°F-12.7°C 58% 12.7 mph WNW20.4 kmh WNW 19.6 mph31.5 kmh 29.92 in1013.2 mb - 0.00 in0.0 mm 0.00 in0.0 mm
07:40 AM 21.7°F-5.7°C 9.5°F-12.5°C 59% 12.7 mph WNW20.4 kmh WNW 20.7 mph33.3 kmh 29.92 in1013.2 mb - 0.00 in0.0 mm 0.00 in0.0 mm
07:30 AM 21.8°F-5.7°C 9.6°F-12.4°C 59% 6.9 mph NW11.1 kmh NW 10.4 mph16.7 kmh 29.91 in1012.9 mb - 0.00 in0.0 mm 0.00 in0.0 mm
07:20 AM 22.0°F-5.6°C 9.4°F-12.6°C 58% 8.1 mph W13.0 kmh W 11.5 mph18.5 kmh 29.91 in1012.9 mb - 0.00 in0.0 mm 0.00 in0.0 mm
07:15 AM 22.0°F-5.6°C 9.5°F-12.5°C 58% 9.2 mph W14.8 kmh W 15.0 mph24.1 kmh 29.91 in1012.9 mb - 0.00 in0.0 mm 0.00 in0.0 mm
07:10 AM 22.1°F-5.5°C 9.9°F-12.3°C 59% 8.1 mph WNW13.0 kmh WNW 13.8 mph22.2 kmh 29.91 in1012.9 mb - 0.00 in0.0 mm 0.00 in0.0 mm
07:00 AM 22.3°F-5.4°C 10.1°F-12.2°C 59% 11.5 mph NW18.5 kmh NW 19.6 mph31.5 kmh 29.91 in1012.9 mb - 0.00 in0.0 mm 0.00 in0.0 mm
06:50 AM 22.4°F-5.3°C 10.2°F-12.1°C 59% 13.8 mph WNW22.2 kmh WNW 20.7 mph33.3 kmh 29.91 in1012.9 mb - 0.00 in0.0 mm 0.00 in0.0 mm
06:45 AM 22.5°F-5.3°C 10.3°F-12.1°C 59% 13.8 mph W22.2 kmh W 16.1 mph25.9 kmh 29.90 in1012.5 mb - 0.00 in0.0 mm 0.00 in0.0 mm
06:40 AM 22.5°F-5.3°C 10.3°F-12.1°C 59% 10.4 mph NW16.7 kmh NW 12.7 mph20.4 kmh 29.91 in1012.9 mb - 0.00 in0.0 mm 0.00 in0.0 mm
06:30 AM 22.7°F-5.2°C 10.5°F-11.9°C 59% 5.8 mph W9.3 kmh W 9.2 mph14.8 kmh 29.91 in1012.9 mb - 0.00 in0.0 mm 0.00 in0.0 mm
06:20 AM 22.9°F-5.1°C 10.3°F-12.1°C 58% 11.5 mph W18.5 kmh W 16.1 mph25.9 kmh 29.91 in1012.9 mb - 0.00 in0.0 mm 0.00 in0.0 mm
06:15 AM 23.0°F-5.0°C 10.4°F-12.0°C 58% 6.9 mph WSW11.1 kmh WSW 10.4 mph16.7 kmh 29.91 in1012.9 mb - 0.00 in0.0 mm 0.00 in0.0 mm
06:10 AM 23.0°F-5.0°C 10.8°F-11.8°C 59% 9.2 mph W14.8 kmh W 11.5 mph18.5 kmh 29.91 in1012.9 mb - 0.00 in0.0 mm 0.00 in0.0 mm
06:00 AM 23.0°F-5.0°C 11.1°F-11.6°C 60% 13.8 mph NW22.2 kmh NW 16.1 mph25.9 kmh 29.91 in1012.9 mb - 0.00 in0.0 mm 0.00 in0.0 mm
05:50 AM 22.9°F-5.1°C 11.1°F-11.6°C 60% 4.6 mph NW7.4 kmh NW 9.2 mph14.8 kmh 29.91 in1012.9 mb - 0.00 in0.0 mm 0.00 in0.0 mm
05:45 AM 22.9°F-5.1°C 11.4°F-11.4°C 61% 12.7 mph W20.4 kmh W 15.0 mph24.1 kmh 29.91 in1012.9 mb - 0.00 in0.0 mm 0.00 in0.0 mm
05:40 AM 22.8°F-5.1°C 11.7°F-11.3°C 62% 9.2 mph W14.8 kmh W 19.6 mph31.5 kmh 29.90 in1012.5 mb - 0.00 in0.0 mm 0.00 in0.0 mm
05:30 AM 22.8°F-5.1°C 12.1°F-11.1°C 63% 6.9 mph W11.1 kmh W 10.4 mph16.7 kmh 29.90 in1012.5 mb - 0.00 in0.0 mm 0.00 in0.0 mm
05:20 AM 22.9°F-5.1°C 12.2°F-11.0°C 63% 8.1 mph W13.0 kmh W 12.7 mph20.4 kmh 29.90 in1012.5 mb - 0.00 in0.0 mm 0.00 in0.0 mm
05:15 AM 23.0°F-5.0°C 12.6°F-10.8°C 64% 9.2 mph WNW14.8 kmh WNW 12.7 mph20.4 kmh 29.89 in1012.2 mb - 0.00 in0.0 mm 0.00 in0.0 mm
05:10 AM 22.9°F-5.1°C 12.5°F-10.8°C 64% 10.4 mph W16.7 kmh W 17.3 mph27.8 kmh 29.89 in1012.2 mb - 0.00 in0.0 mm 0.00 in0.0 mm
05:00 AM 22.8°F-5.1°C 12.8°F-10.7°C 65% 4.6 mph WSW7.4 kmh WSW 12.7 mph20.4 kmh 29.89 in1012.2 mb - 0.00 in0.0 mm 0.00 in0.0 mm
04:50 AM 23.0°F-5.0°C 13.0°F-10.6°C 65% 6.9 mph W11.1 kmh W 11.5 mph18.5 kmh 29.89 in1012.2 mb - 0.00 in0.0 mm 0.00 in0.0 mm
04:45 AM 23.1°F-4.9°C 13.4°F-10.3°C 66% 8.1 mph W13.0 kmh W 9.2 mph14.8 kmh 29.89 in1012.2 mb - 0.00 in0.0 mm 0.00 in0.0 mm
04:40 AM 23.1°F-4.9°C 13.1°F-10.5°C 65% 5.8 mph W9.3 kmh W 11.5 mph18.5 kmh 29.88 in1011.9 mb - 0.00 in0.0 mm 0.00 in0.0 mm
04:30 AM 23.2°F-4.9°C 13.5°F-10.3°C 66% 9.2 mph W14.8 kmh W 15.0 mph24.1 kmh 29.89 in1012.2 mb - 0.00 in0.0 mm 0.00 in0.0 mm
04:20 AM 23.4°F-4.8°C 13.7°F-10.2°C 66% 5.8 mph W9.3 kmh W 9.2 mph14.8 kmh 29.88 in1011.9 mb - 0.00 in0.0 mm 0.00 in0.0 mm
04:15 AM 23.4°F-4.8°C 13.7°F-10.2°C 66% 8.1 mph W13.0 kmh W 18.4 mph29.6 kmh 29.88 in1011.9 mb - 0.00 in0.0 mm 0.00 in0.0 mm
04:10 AM 23.5°F-4.7°C 13.4°F-10.3°C 65% 8.1 mph W13.0 kmh W 11.5 mph18.5 kmh 29.88 in1011.9 mb - 0.00 in0.0 mm 0.00 in0.0 mm
04:00 AM 23.8°F-4.6°C 13.7°F-10.2°C 65% 3.5 mph WNW5.6 kmh WNW 5.8 mph9.3 kmh 29.88 in1011.9 mb - 0.00 in0.0 mm 0.00 in0.0 mm
03:50 AM 23.9°F-4.5°C 13.8°F-10.1°C 65% 6.9 mph W11.1 kmh W 13.8 mph22.2 kmh 29.88 in1011.9 mb - 0.00 in0.0 mm 0.00 in0.0 mm
03:45 AM 23.9°F-4.5°C 13.8°F-10.1°C 65% 2.3 mph WSW3.7 kmh WSW 4.6 mph7.4 kmh 29.88 in1011.9 mb - 0.00 in0.0 mm 0.00 in0.0 mm
03:40 AM 23.9°F-4.5°C 13.5°F-10.3°C 64% 6.9 mph W11.1 kmh W 8.1 mph13.0 kmh 29.88 in1011.9 mb - 0.00 in0.0 mm 0.00 in0.0 mm
03:30 AM 24.1°F-4.4°C 13.7°F-10.2°C 64% 8.1 mph W13.0 kmh W 12.7 mph20.4 kmh 29.88 in1011.9 mb - 0.00 in0.0 mm 0.00 in0.0 mm
03:20 AM 24.3°F-4.3°C 13.5°F-10.3°C 63% 10.4 mph W16.7 kmh W 17.3 mph27.8 kmh 29.88 in1011.9 mb - 0.00 in0.0 mm 0.00 in0.0 mm
03:15 AM 24.3°F-4.3°C 13.5°F-10.3°C 63% 4.6 mph WNW7.4 kmh WNW 12.7 mph20.4 kmh 29.87 in1011.5 mb - 0.00 in0.0 mm 0.00 in0.0 mm
03:10 AM 24.4°F-4.2°C 13.6°F-10.2°C 63% 8.1 mph WNW13.0 kmh WNW 11.5 mph18.5 kmh 29.87 in1011.5 mb - 0.00 in0.0 mm 0.00 in0.0 mm
03:00 AM 24.5°F-4.2°C 13.7°F-10.2°C 63% 8.1 mph W13.0 kmh W 9.2 mph14.8 kmh 29.87 in1011.5 mb - 0.00 in0.0 mm 0.00 in0.0 mm
02:50 AM 24.7°F-4.1°C 13.9°F-10.1°C 63% 5.8 mph W9.3 kmh W 15.0 mph24.1 kmh 29.87 in1011.5 mb - 0.00 in0.0 mm 0.00 in0.0 mm
02:45 AM 24.7°F-4.1°C 13.9°F-10.1°C 63% 10.4 mph W16.7 kmh W 17.3 mph27.8 kmh 29.87 in1011.5 mb - 0.00 in0.0 mm 0.00 in0.0 mm
02:40 AM 24.7°F-4.1°C 13.9°F-10.1°C 63% 11.5 mph WNW18.5 kmh WNW 15.0 mph24.1 kmh 29.87 in1011.5 mb - 0.00 in0.0 mm 0.00 in0.0 mm
02:30 AM 24.8°F-4.0°C 14.0°F-10.0°C 63% 11.5 mph W18.5 kmh W 19.6 mph31.5 kmh 29.86 in1011.2 mb - 0.00 in0.0 mm 0.00 in0.0 mm
02:20 AM 24.9°F-3.9°C 14.1°F-9.9°C 63% 9.2 mph W14.8 kmh W 13.8 mph22.2 kmh 29.86 in1011.2 mb - 0.00 in0.0 mm 0.00 in0.0 mm
02:15 AM 25.0°F-3.9°C 14.2°F-9.9°C 63% 11.5 mph W18.5 kmh W 15.0 mph24.1 kmh 29.86 in1011.2 mb - 0.00 in0.0 mm 0.00 in0.0 mm
02:10 AM 25.1°F-3.8°C 14.3°F-9.8°C 63% 6.9 mph W11.1 kmh W 12.7 mph20.4 kmh 29.86 in1011.2 mb - 0.00 in0.0 mm 0.00 in0.0 mm
02:00 AM 25.3°F-3.7°C 14.4°F-9.8°C 63% 8.1 mph W13.0 kmh W 12.7 mph20.4 kmh 29.85 in1010.8 mb - 0.00 in0.0 mm 0.00 in0.0 mm
01:50 AM 25.4°F-3.7°C 14.2°F-9.9°C 62% 11.5 mph WNW18.5 kmh WNW 18.4 mph29.6 kmh 29.85 in1010.8 mb - 0.00 in0.0 mm 0.00 in0.0 mm
01:45 AM 25.5°F-3.6°C 14.3°F-9.8°C 62% 4.6 mph WNW7.4 kmh WNW 10.4 mph16.7 kmh 29.86 in1011.2 mb - 0.00 in0.0 mm 0.00 in0.0 mm
01:40 AM 25.6°F-3.6°C 14.7°F-9.6°C 63% 6.9 mph W11.1 kmh W 11.5 mph18.5 kmh 29.86 in1011.2 mb - 0.00 in0.0 mm 0.00 in0.0 mm
01:30 AM 25.7°F-3.5°C 14.4°F-9.8°C 62% 13.8 mph W22.2 kmh W 25.3 mph40.7 kmh 29.85 in1010.8 mb - 0.00 in0.0 mm 0.00 in0.0 mm
01:20 AM 25.7°F-3.5°C 14.1°F-9.9°C 61% 11.5 mph W18.5 kmh W 19.6 mph31.5 kmh 29.85 in1010.8 mb - 0.00 in0.0 mm 0.00 in0.0 mm
01:15 AM 25.8°F-3.4°C 14.2°F-9.9°C 61% 13.8 mph W22.2 kmh W 19.6 mph31.5 kmh 29.85 in1010.8 mb - 0.00 in0.0 mm 0.00 in0.0 mm
01:10 AM 25.9°F-3.4°C 14.3°F-9.8°C 61% 9.2 mph W14.8 kmh W 15.0 mph24.1 kmh 29.85 in1010.8 mb - 0.00 in0.0 mm 0.00 in0.0 mm
01:00 AM 26.0°F-3.3°C 14.4°F-9.8°C 61% 6.9 mph WNW11.1 kmh WNW 9.2 mph14.8 kmh 29.84 in1010.5 mb - 0.00 in0.0 mm 0.00 in0.0 mm
12:50 AM 26.3°F-3.2°C 15.1°F-9.4°C 62% 5.8 mph W9.3 kmh W 12.7 mph20.4 kmh 29.84 in1010.5 mb - 0.00 in0.0 mm 0.00 in0.0 mm
12:45 AM 26.5°F-3.1°C 14.8°F-9.6°C 61% 10.4 mph WNW16.7 kmh WNW 15.0 mph24.1 kmh 29.84 in1010.5 mb - 0.00 in0.0 mm 0.00 in0.0 mm
12:40 AM 26.7°F-2.9°C 14.6°F-9.7°C 60% 8.1 mph W13.0 kmh W 12.7 mph20.4 kmh 29.84 in1010.5 mb - 0.00 in0.0 mm 0.00 in0.0 mm
12:30 AM 26.9°F-2.8°C 14.1°F-9.9°C 58% 11.5 mph W18.5 kmh W 19.6 mph31.5 kmh 29.84 in1010.5 mb - 0.00 in0.0 mm 0.00 in0.0 mm
12:20 AM 27.1°F-2.7°C 13.8°F-10.1°C 57% 13.8 mph NW22.2 kmh NW 21.9 mph35.2 kmh 29.83 in1010.2 mb - 0.00 in0.0 mm 0.00 in0.0 mm
12:15 AM 27.3°F-2.6°C 13.6°F-10.2°C 56% 9.2 mph WNW14.8 kmh WNW 12.7 mph20.4 kmh 29.83 in1010.2 mb - 0.00 in0.0 mm 0.00 in0.0 mm
12:10 AM 27.5°F-2.5°C 13.8°F-10.1°C 56% 13.8 mph W22.2 kmh W 18.4 mph29.6 kmh 29.83 in1010.2 mb - 0.00 in0.0 mm 0.00 in0.0 mm
12:00 AM 27.9°F-2.3°C 13.3°F-10.4°C 54% 11.5 mph WNW18.5 kmh WNW 18.4 mph29.6 kmh 29.82 in1009.8 mb - 0.00 in0.0 mm 0.00 in0.0 mm